ADDS METAR Data INFO
IDs: Format: Raw Decoded Include TAF

Data at: 2050 UTC 24 Jun 2018

KGNC 242035Z AUTO 26010G20KT 10SM CLR 41/00 A2978 RMK AO2 T04050003
KGNC 242015Z AUTO 25011G19KT 10SM CLR 40/02 A2979 RMK AO2 T04010017
KGNC 241955Z AUTO 24009G23KT 10SM CLR 40/03 A2979 RMK AO2 T04040028
KGNC 241935Z AUTO 21010G22KT 10SM CLR 40/03 A2979 RMK AO2 T03980034
KGNC 241915Z AUTO 22015G22KT 10SM CLR 39/04 A2980 RMK AO2 T03930037
KGNC 241855Z AUTO 23012G23KT 10SM CLR 39/05 A2981 RMK AO2 T03870045
KGNC 241835Z AUTO 22011G21KT 10SM CLR 38/05 A2982 RMK AO2 T03770052
KGNC 241815Z AUTO 24016G20KT 10SM CLR 37/06 A2983 RMK AO2 T03730057
KGNC 241755Z AUTO 23013G19KT 10SM CLR 37/07 A2983 RMK AO2 T03690069 10370 20245
KGNC 241735Z AUTO 22015G20KT 10SM CLR 37/08 A2983 RMK AO2 T03690082
KGNC 241715Z AUTO 23015G20KT 10SM CLR 36/09 A2983 RMK AO2 T03640085
KGNC 241655Z AUTO 22010G16KT 10SM CLR 35/11 A2983 RMK AO2 T03510112
KGNC 241635Z AUTO 23010G18KT 10SM CLR 34/12 A2983 RMK AO2 T03380122
KGNC 241615Z AUTO 22011G17KT 10SM CLR 33/13 A2984 RMK AO2 T03300131
KGNC 241555Z AUTO 21014G17KT 10SM CLR 32/14 A2984 RMK AO2 T03210139
KGNC 241535Z AUTO 21013G20KT 10SM CLR 31/14 A2984 RMK AO2 T03130141
KGNC 241515Z AUTO 21015G20KT 10SM CLR 30/14 A2984 RMK AO2 T03030143
KGNC 241455Z AUTO 21014G20KT 10SM CLR 30/16 A2984 RMK AO2 T02950156
KGNC 241435Z AUTO 20015G19KT 10SM CLR 28/17 A2984 RMK AO2 T02830174
KGNC 241415Z AUTO 19013G17KT 10SM CLR 27/18 A2984 RMK AO2 T02740180
KGNC 241355Z AUTO 19014G18KT 10SM CLR 27/18 A2984 RMK AO2 T02680181
KGNC 241335Z AUTO 19013G18KT 10SM CLR 26/18 A2984 RMK AO2 T02640180
KGNC 241315Z AUTO 19014G20KT 10SM CLR 26/18 A2984 RMK AO2 T02570179
KGNC 241255Z AUTO 19015KT 10SM CLR 26/18 A2983 RMK AO2 T02550176
KGNC 241235Z AUTO 19011G16KT 10SM CLR 25/18 A2983 RMK AO2 T02510175
KGNC 241215Z AUTO 19013KT 10SM CLR 25/17 A2982 RMK AO2 T02470173
KGNC 241155Z AUTO 19011G16KT 10SM CLR 25/17 A2982 RMK AO2 T02450171 10290 20245
KGNC 241135Z AUTO 19011KT 10SM CLR 25/17 A2982 RMK AO2 T02480172
KGNC 241115Z AUTO 19010KT 10SM CLR 25/17 A2981 RMK AO2 T02510171
KGNC 241055Z AUTO 18011G17KT 10SM CLR 26/17 A2982 RMK AO2 T02560171
KGNC 241035Z AUTO 19010G16KT 10SM CLR 26/17 A2981 RMK AO2 T02580171
KGNC 241015Z AUTO 17012G17KT 10SM CLR 26/17 A2981 RMK AO2 T02630170
KGNC 240955Z AUTO 17013G17KT 10SM CLR 27/17 A2982 RMK AO2 T02650170
KGNC 240935Z AUTO 17014G17KT 10SM CLR 27/17 A2982 RMK AO2 T02680170
KGNC 240915Z AUTO 17013G18KT 10SM CLR 27/17 A2982 RMK AO2 T02710167
KGNC 240855Z AUTO 17012G18KT 10SM CLR 28/17 A2982 RMK AO2 T02750165
KGNC 240835Z AUTO 17015G19KT 10SM CLR 28/16 A2982 RMK AO2 T02760163
KGNC 240815Z AUTO 17011G17KT 10SM CLR 28/16 A2981 RMK AO2 T02760160
KGNC 240755Z AUTO 17010KT 10SM CLR 28/16 A2982 RMK AO2 T02760159
KGNC 240735Z AUTO 16010KT 10SM CLR 28/16 A2982 RMK AO2 T02770160
KGNC 240715Z AUTO 17010G16KT 10SM CLR 28/16 A2982 RMK AO2 T02770160
KGNC 240655Z AUTO 16008KT 10SM CLR 27/16 A2982 RMK AO2 T02730158
KGNC 240635Z AUTO 16009KT 10SM CLR 28/16 A2982 RMK AO2 T02800156
KGNC 240615Z AUTO 16010G16KT 10SM CLR 29/15 A2982 RMK AO2 T02870153
KGNC 240555Z AUTO 18012G16KT 10SM CLR 28/15 A2980 RMK AO2 T02830149 10377 20265 403830223
KGNC 240535Z AUTO 17007KT 10SM CLR 27/13 A2980 RMK AO2 T02680129
KGNC 240515Z AUTO 17008G15KT 10SM CLR 28/11 A2979 RMK AO2 T02800112
KGNC 240455Z AUTO 16004KT 10SM CLR 27/10 A2978 RMK AO2 T02710101
KGNC 240435Z AUTO 16004KT 10SM CLR 27/11 A2978 RMK AO2 T02720105
KGNC 240415Z AUTO 14003KT 10SM CLR 28/10 A2978 RMK AO2 T02780102
KGNC 240355Z AUTO 14003KT 10SM CLR 28/10 A2977 RMK AO2 T02810100
KGNC 240335Z AUTO 00000KT 10SM CLR 29/10 A2977 RMK AO2 T02850096
KGNC 240315Z AUTO 14003KT 10SM CLR 29/09 A2976 RMK AO2 T02890093
KGNC 240255Z AUTO 14004KT 10SM CLR 30/10 A2976 RMK AO2 T02990095
KGNC 240235Z AUTO 12004KT 10SM CLR 31/10 A2976 RMK AO2 T03060101
KGNC 240215Z AUTO 12004KT 10SM CLR 32/10 A2976 RMK AO2 T03190101
KGNC 240155Z AUTO 12004KT 10SM CLR 33/11 A2976 RMK AO2 T03320105
KGNC 240135Z AUTO 10004KT 10SM CLR 35/10 A2975 RMK AO2 T03480102
KGNC 240115Z AUTO 00000KT 10SM CLR 36/10 A2975 RMK AO2 T03620096
KGNC 240055Z AUTO 00000KT 10SM CLR 37/08 A2976 RMK AO2 T03730079
KGNC 240035Z AUTO 00000KT 10SM CLR 38/07 A2976 RMK AO2 T03750066
KGNC 240015Z AUTO 00000KT 10SM CLR 38/07 A2977 RMK AO2 T03760071
KGNC 232355Z AUTO 00000KT 10SM CLR 38/08 A2977 RMK AO2 T03780077 10383 20330
KGNC 232335Z AUTO 08005KT 10SM CLR 38/08 A2977 RMK AO2 T03820083
KGNC 232315Z AUTO 00000KT 10SM CLR 38/08 A2978 RMK AO2 T03800079
KGNC 232255Z AUTO 00000KT 10SM CLR 38/08 A2978 RMK AO2 T03790075
KGNC 232235Z AUTO 01004KT 10SM CLR 38/07 A2979 RMK AO2 T03780069
KGNC 232215Z AUTO 10003KT 10SM CLR 38/07 A2979 RMK AO2 T03800073
KGNC 232155Z AUTO 00000KT 10SM CLR 37/09 A2980 RMK AO2 T03740090
KGNC 232135Z AUTO 01004KT 10SM CLR 38/10 A2980 RMK AO2 T03760103
KGNC 232115Z AUTO 07003KT 10SM CLR 37/10 A2980 RMK AO2 T03730103
KGNC 232055Z AUTO 36005KT 10SM CLR 37/10 A2981 RMK AO2 T03730103
KGNC 232035Z AUTO 04005KT 10SM CLR 37/12 A2981 RMK AO2 T03680119
KGNC 232015Z AUTO 00000KT 10SM CLR 37/13 A2981 RMK AO2 T03650129
KGNC 231955Z AUTO 00000KT 10SM CLR 36/13 A2982 RMK AO2 T03550127
KGNC 231935Z AUTO 05003KT 10SM CLR 36/11 A2982 RMK AO2 T03560113
KGNC 231915Z AUTO 36004KT 10SM CLR 35/12 A2982 RMK AO2 T03480120
KGNC 231855Z AUTO 03004KT 10SM CLR 35/11 A2983 RMK AO2 T03470111
KGNC 231835Z AUTO 00000KT 10SM CLR 34/11 A2983 RMK AO2 T03430112
KGNC 231815Z AUTO 00000KT 10SM CLR 33/12 A2984 RMK AO2 T03310118
KGNC 231755Z AUTO 00000KT 10SM CLR 33/13 A2984 RMK AO2 T03310129 10331 20223
KGNC 231735Z AUTO 09004KT 10SM CLR 33/13 A2984 RMK AO2 T03250129
KGNC 231715Z AUTO 06005KT 10SM CLR 32/14 A2984 RMK AO2 T03170136
KGNC 231655Z AUTO 00000KT 10SM CLR 31/14 A2984 RMK AO2 T03130140
KGNC 231635Z AUTO 32004KT 10SM CLR 31/14 A2985 RMK AO2 T03060139
KGNC 231615Z AUTO 29004KT 10SM CLR 30/15 A2984 RMK AO2 T03010149
KGNC 231555Z AUTO 28003KT 10SM CLR 29/15 A2984 RMK AO2 T02910152
KGNC 231535Z AUTO 00000KT 10SM CLR 29/16 A2984 RMK AO2 T02860160
KGNC 231515Z AUTO 21003KT 10SM CLR 28/16 A2984 RMK AO2 T02810161
KGNC 231455Z AUTO 18006KT 10SM CLR 28/17 A2984 RMK AO2 T02810167
KGNC 231435Z AUTO 07003KT 10SM CLR 27/17 A2985 RMK AO2 T02720174
KGNC 231415Z AUTO 12003KT 10SM CLR 26/18 A2984 RMK AO2 T02620175
KGNC 231355Z AUTO 13007KT 10SM CLR 25/18 A2983 RMK AO2 T02540176
KGNC 231335Z AUTO 15006G14KT 10SM CLR 25/18 A2982 RMK AO2 T02480175
KGNC 231315Z AUTO 21009KT 10SM CLR 25/17 A2980 RMK AO2 T02450173
KGNC 231255Z AUTO 20011G15KT 10SM CLR 24/17 A2979 RMK AO2 T02360172
KGNC 231235Z AUTO 20008KT 10SM CLR 23/17 A2978 RMK AO2 T02290171
KGNC 231215Z AUTO 20009KT 10SM CLR 23/17 A2978 RMK AO2 T02250170
KGNC 231155Z AUTO 20009KT 10SM CLR 23/17 A2978 RMK AO2 T02250169 10271 20225
KGNC 231135Z AUTO 20010KT 10SM CLR 23/17 A2978 RMK AO2 T02300170
KGNC 231115Z AUTO 19010KT 10SM CLR 23/17 A2977 RMK AO2 T02320168
KGNC 231055Z AUTO 19010G16KT 10SM CLR 24/17 A2977 RMK AO2 T02350168
KGNC 231035Z AUTO 19010KT 10SM CLR 24/17 A2977 RMK AO2 T02360167
KGNC 231015Z AUTO 18010KT 10SM CLR 24/17 A2977 RMK AO2 T02360166
KGNC 230955Z AUTO 19010KT 10SM CLR 24/17 A2977 RMK AO2 T02400166
KGNC 230935Z AUTO 19012G16KT 10SM CLR 24/17 A2977 RMK AO2 T02430165
KGNC 230915Z AUTO 20010G16KT 10SM CLR 25/17 A2977 RMK AO2 T02450165
KGNC 230855Z AUTO 20012G18KT 10SM CLR 25/16 A2977 RMK AO2 T02480163